Time;durP1;ratioP1;P1;durP2;ratioP2;P2;SDS_P1;SDS_P2;PMS_P1;PMS_P2;Temp;Humidity;BMP_temperature;BMP_pressure;BME280_temperature;BME280_humidity;BME280_pressure;Samples;Min_cycle;Max_cycle;Signal;HPM_P1;HPM_P2
2021/10/06 00:01:01;;;;;;;16.63;11.93;;;12.50;99.90;;;;;;5073906;28;20111;-84
2021/10/06 00:03:27;;;;;;;13.57;10.90;;;12.50;99.90;;;;;;5073702;28;20020;-84
2021/10/06 00:05:52;;;;;;;14.73;10.55;;;12.40;99.90;;;;;;5073770;28;20111;-84
2021/10/06 00:08:18;;;;;;;14.75;11.88;;;12.40;99.90;;;;;;5074969;28;20107;-84
2021/10/06 00:10:45;;;;;;;18.33;11.27;;;12.30;99.90;;;;;;5074762;28;20504;-83
2021/10/06 00:13:12;;;;;;;15.10;10.43;;;12.30;99.90;;;;;;5073646;28;20494;-83
2021/10/06 00:15:38;;;;;;;14.75;11.00;;;12.30;99.90;;;;;;5073494;28;20109;-84
2021/10/06 00:18:04;;;;;;;15.52;10.93;;;12.30;99.90;;;;;;5073678;28;20366;-84
2021/10/06 00:20:30;;;;;;;16.27;12.05;;;12.30;99.90;;;;;;5110682;28;20023;-84
2021/10/06 00:22:56;;;;;;;16.23;11.45;;;12.30;99.90;;;;;;5108897;28;20028;-84
2021/10/06 00:25:21;;;;;;;16.02;11.80;;;12.30;99.90;;;;;;5110557;28;20073;-84
2021/10/06 00:27:49;;;;;;;18.17;12.13;;;12.20;99.90;;;;;;5094806;28;20020;-84
2021/10/06 00:30:15;;;;;;;15.18;11.05;;;12.30;99.90;;;;;;5110378;28;20043;-84
2021/10/06 00:32:41;;;;;;;14.93;11.65;;;12.30;99.90;;;;;;5110388;28;20031;-84
2021/10/06 00:35:07;;;;;;;14.05;10.73;;;12.20;99.90;;;;;;5094443;28;20431;-84
2021/10/06 00:37:33;;;;;;;13.63;10.57;;;12.20;99.90;;;;;;5100742;28;20029;-84
2021/10/06 00:39:59;;;;;;;17.50;10.70;;;12.10;99.90;;;;;;5073130;28;20115;-82
2021/10/06 00:42:24;;;;;;;15.00;10.55;;;12.10;99.90;;;;;;5073041;28;20024;-83
2021/10/06 00:44:51;;;;;;;12.43;10.45;;;12.10;99.90;;;;;;5074206;28;20382;-83
2021/10/06 00:47:17;;;;;;;17.88;10.82;;;12.10;99.90;;;;;;5072866;28;20462;-84
2021/10/06 00:49:43;;;;;;;15.07;11.07;;;12.10;99.90;;;;;;5087735;28;20150;-82
2021/10/06 00:52:13;;;;;;;16.70;10.35;;;12.00;99.90;;;;;;5094195;28;20024;-83
2021/10/06 00:54:39;;;;;;;15.65;11.68;;;12.00;99.90;;;;;;5093833;28;20016;-83
2021/10/06 00:57:05;;;;;;;19.65;10.40;;;12.00;99.90;;;;;;5104094;28;20028;-82
2021/10/06 00:59:31;;;;;;;14.32;10.70;;;12.00;99.90;;;;;;5072774;28;20037;-83
2021/10/06 01:01:57;;;;;;;15.30;10.50;;;12.00;99.90;;;;;;5072623;28;20039;-83
2021/10/06 01:04:23;;;;;;;16.30;10.85;;;11.90;99.90;;;;;;5072437;28;20478;-83
2021/10/06 01:06:48;;;;;;;11.88;9.48;;;12.00;99.90;;;;;;5072520;28;20386;-83
2021/10/06 01:09:14;;;;;;;16.52;10.63;;;12.00;99.90;;;;;;5073764;28;20104;-83
2021/10/06 01:11:41;;;;;;;15.48;11.00;;;12.00;99.90;;;;;;5083652;28;20081;-83
2021/10/06 01:14:07;;;;;;;13.82;11.07;;;12.10;99.90;;;;;;5093922;28;20030;-83
2021/10/06 01:16:33;;;;;;;13.68;10.13;;;12.10;99.90;;;;;;5109572;28;20077;-83
2021/10/06 01:19:00;;;;;;;12.23;9.15;;;12.10;99.90;;;;;;5093808;28;20098;-83
2021/10/06 01:21:26;;;;;;;12.30;9.90;;;12.10;99.90;;;;;;5092474;28;20024;-83
2021/10/06 01:23:52;;;;;;;15.27;9.32;;;12.20;99.90;;;;;;5092442;28;20016;-84
2021/10/06 01:26:21;;;;;;;14.77;9.70;;;12.20;99.90;;;;;;5093813;28;20137;-83
2021/10/06 01:28:48;;;;;;;16.58;11.32;;;12.20;99.90;;;;;;5092298;28;20123;-83
2021/10/06 01:31:14;;;;;;;15.88;10.25;;;12.30;99.90;;;;;;5093678;28;20036;-83
2021/10/06 01:33:39;;;;;;;13.55;9.65;;;12.30;99.90;;;;;;5109160;28;20027;-83
2021/10/06 01:36:05;;;;;;;20.63;11.27;;;12.30;99.90;;;;;;5092583;28;20119;-83
2021/10/06 01:38:31;;;;;;;17.92;10.38;;;12.30;99.90;;;;;;5093405;28;20024;-83
2021/10/06 01:40:57;;;;;;;23.85;11.73;;;12.30;99.90;;;;;;5107515;28;20355;-83
2021/10/06 01:43:22;;;;;;;17.00;11.25;;;12.30;99.90;;;;;;5089080;28;20029;-83
2021/10/06 01:45:48;;;;;;;13.63;11.07;;;12.40;99.90;;;;;;5073213;28;20060;-82
2021/10/06 01:48:14;;;;;;;14.60;11.05;;;12.30;99.90;;;;;;5073072;28;20028;-83
2021/10/06 01:50:44;;;;;;;18.17;10.18;;;12.40;99.90;;;;;;5071670;28;20052;-82
2021/10/06 01:53:15;;;;;;;16.13;10.52;;;12.40;99.90;;;;;;5071975;28;20071;-82
2021/10/06 01:55:41;;;;;;;16.38;11.10;;;12.30;99.90;;;;;;5082632;28;20111;-82
2021/10/06 01:58:14;;;;;;;17.83;11.93;;;12.40;99.90;;;;;;5092039;28;20028;-82
2021/10/06 02:00:42;;;;;;;15.13;11.68;;;12.40;99.90;;;;;;5086064;28;20028;-82
2021/10/06 02:03:07;;;;;;;14.80;10.75;;;12.50;99.90;;;;;;5073153;28;20029;-82
2021/10/06 02:05:33;;;;;;;16.67;11.88;;;12.40;99.90;;;;;;5080199;28;20024;-82
2021/10/06 02:08:02;;;;;;;15.90;11.05;;;12.30;99.90;;;;;;5093060;28;20055;-82
2021/10/06 02:10:29;;;;;;;20.13;11.43;;;12.30;99.90;;;;;;5108579;28;20044;-82
2021/10/06 02:12:56;;;;;;;15.77;10.93;;;12.20;99.90;;;;;;5093184;28;20024;-82
2021/10/06 02:15:22;;;;;;;13.65;10.70;;;12.20;99.90;;;;;;5108715;28;20123;-82
2021/10/06 02:17:47;;;;;;;15.40;10.85;;;12.10;99.90;;;;;;5108669;28;20524;-82
2021/10/06 02:20:13;;;;;;;16.45;11.13;;;12.10;99.90;;;;;;5091279;28;20032;-81
2021/10/06 02:22:39;;;;;;;18.40;10.98;;;12.10;99.90;;;;;;5108529;28;20020;-82
2021/10/06 02:25:06;;;;;;;16.40;11.20;;;12.20;99.90;;;;;;5092672;28;20031;-82
2021/10/06 02:27:31;;;;;;;19.17;13.27;;;12.20;99.90;;;;;;5091550;28;20020;-82
2021/10/06 02:29:57;;;;;;;14.38;11.40;;;12.20;99.90;;;;;;5092756;28;20028;-82
2021/10/06 02:32:23;;;;;;;14.95;11.25;;;12.20;99.90;;;;;;5091539;28;20469;-82
2021/10/06 02:34:48;;;;;;;17.60;12.13;;;12.30;99.90;;;;;;5093177;28;20024;-82
2021/10/06 02:37:14;;;;;;;19.30;12.80;;;12.20;99.90;;;;;;5092229;28;20066;-82
2021/10/06 02:39:40;;;;;;;16.05;10.27;;;12.30;99.90;;;;;;5092885;28;20024;-83
2021/10/06 02:42:06;;;;;;;16.67;10.68;;;12.20;99.90;;;;;;5093058;28;20385;-83
2021/10/06 02:44:32;;;;;;;16.25;10.93;;;12.20;99.90;;;;;;5091347;28;20020;-82
2021/10/06 02:46:58;;;;;;;14.88;10.63;;;12.20;99.90;;;;;;5092689;28;20020;-83
2021/10/06 02:49:24;;;;;;;17.17;11.90;;;12.20;99.90;;;;;;5089425;28;20024;-82
2021/10/06 02:51:49;;;;;;;13.10;11.07;;;12.20;99.90;;;;;;5071929;28;20116;-82
2021/10/06 02:54:15;;;;;;;15.70;11.27;;;12.20;99.90;;;;;;5072339;28;20030;-83
2021/10/06 02:56:41;;;;;;;15.02;10.82;;;12.30;99.90;;;;;;5071098;28;20032;-83
2021/10/06 02:59:07;;;;;;;16.50;11.15;;;12.30;99.90;;;;;;5085408;28;20029;-82
2021/10/06 03:01:32;;;;;;;13.90;11.15;;;12.30;99.90;;;;;;5108598;28;20416;-83
2021/10/06 03:03:58;;;;;;;17.77;10.90;;;12.20;99.90;;;;;;5108672;28;20477;-82
2021/10/06 03:06:23;;;;;;;13.90;10.13;;;12.20;99.90;;;;;;5108178;28;20469;-83
2021/10/06 03:08:49;;;;;;;16.70;12.07;;;12.20;99.90;;;;;;5092429;28;20035;-83
2021/10/06 03:11:15;;;;;;;22.10;12.15;;;12.30;99.90;;;;;;5108149;28;20500;-83
2021/10/06 03:13:40;;;;;;;19.00;11.18;;;12.30;99.90;;;;;;5108076;28;20023;-82
2021/10/06 03:16:06;;;;;;;17.20;11.63;;;12.30;99.90;;;;;;5074721;28;20063;-82
2021/10/06 03:18:32;;;;;;;13.32;11.05;;;12.30;99.90;;;;;;5085358;28;20031;-82
2021/10/06 03:20:58;;;;;;;12.38;10.63;;;12.40;99.90;;;;;;5094102;28;20162;-82
2021/10/06 03:23:24;;;;;;;16.05;11.32;;;12.30;99.90;;;;;;5099224;28;20043;-82
2021/10/06 03:25:50;;;;;;;13.32;11.57;;;12.40;99.90;;;;;;5074587;28;20028;-82
2021/10/06 03:28:16;;;;;;;16.17;11.35;;;12.40;99.90;;;;;;5074438;28;20020;-82
2021/10/06 03:30:42;;;;;;;15.57;11.32;;;12.40;99.90;;;;;;5075601;28;20067;-82
2021/10/06 03:33:08;;;;;;;15.55;11.52;;;12.40;99.90;;;;;;5074352;28;20056;-82
2021/10/06 03:35:34;;;;;;;15.13;10.98;;;12.40;99.90;;;;;;5086834;28;20031;-82
2021/10/06 03:37:59;;;;;;;15.68;11.90;;;12.40;99.90;;;;;;5094548;28;20378;-83
2021/10/06 03:40:25;;;;;;;15.10;10.93;;;12.40;99.90;;;;;;5094481;28;20024;-83
2021/10/06 03:42:51;;;;;;;17.15;10.82;;;12.30;99.90;;;;;;5094364;28;20028;-83
2021/10/06 03:45:17;;;;;;;18.88;11.50;;;12.30;99.90;;;;;;5094392;28;20444;-83
2021/10/06 03:47:43;;;;;;;15.20;10.00;;;12.30;99.90;;;;;;5095731;28;20081;-83
2021/10/06 03:50:12;;;;;;;14.75;10.95;;;12.30;99.90;;;;;;5093371;28;20035;-83
2021/10/06 03:52:38;;;;;;;16.67;11.13;;;12.30;99.90;;;;;;5095481;28;20032;-83
2021/10/06 03:55:08;;;;;;;14.82;10.52;;;12.40;99.90;;;;;;5094223;28;20123;-83
2021/10/06 03:57:34;;;;;;;14.13;10.77;;;12.40;99.90;;;;;;5084578;28;20025;-83
2021/10/06 04:00:00;;;;;;;13.27;11.57;;;12.50;99.90;;;;;;5076132;28;20032;-83
2021/10/06 04:02:26;;;;;;;12.80;9.82;;;12.50;99.90;;;;;;5075175;28;20030;-83
2021/10/06 04:04:52;;;;;;;15.32;10.48;;;12.60;99.90;;;;;;5075036;28;20031;-83
2021/10/06 04:07:18;;;;;;;13.38;10.32;;;12.60;99.90;;;;;;5075051;28;20367;-82
2021/10/06 04:09:44;;;;;;;14.20;10.60;;;12.60;99.90;;;;;;5073561;28;20067;-82
2021/10/06 04:12:09;;;;;;;13.88;10.45;;;12.60;99.90;;;;;;5073798;28;20469;-83
2021/10/06 04:14:35;;;;;;;13.10;9.98;;;12.60;99.90;;;;;;5074870;28;20036;-83
2021/10/06 04:17:01;;;;;;;12.82;9.77;;;12.50;99.90;;;;;;5075241;28;20473;-83
2021/10/06 04:19:27;;;;;;;15.25;10.38;;;12.50;99.90;;;;;;5073743;28;20016;-83
2021/10/06 04:21:52;;;;;;;15.50;9.77;;;12.50;99.90;;;;;;5073460;28;20021;-83
2021/10/06 04:24:18;;;;;;;16.27;11.02;;;12.50;99.90;;;;;;5074761;28;20039;-83
2021/10/06 04:26:44;;;;;;;15.73;10.85;;;12.40;99.90;;;;;;5072881;28;20025;-82
2021/10/06 04:29:09;;;;;;;13.60;10.50;;;12.40;99.90;;;;;;5074637;28;20024;-83
2021/10/06 04:31:35;;;;;;;17.83;10.60;;;12.50;99.90;;;;;;5074423;28;20477;-83
2021/10/06 04:34:00;;;;;;;15.35;11.75;;;12.50;99.90;;;;;;5074506;28;20027;-83
2021/10/06 04:36:26;;;;;;;15.32;11.80;;;12.40;99.90;;;;;;5073059;28;20478;-83
2021/10/06 04:38:52;;;;;;;17.80;11.25;;;12.40;99.90;;;;;;5074445;28;20027;-82
2021/10/06 04:41:17;;;;;;;15.27;10.88;;;12.40;99.90;;;;;;5070324;28;20406;-82
2021/10/06 04:43:43;;;;;;;16.30;11.98;;;12.40;99.90;;;;;;5089494;28;20028;-83
2021/10/06 04:46:09;;;;;;;18.67;12.82;;;12.40;99.90;;;;;;5094262;28;20103;-83
2021/10/06 04:48:34;;;;;;;19.17;12.40;;;12.40;99.90;;;;;;5090740;28;20065;-83
2021/10/06 04:51:00;;;;;;;15.57;11.73;;;12.40;99.90;;;;;;5094359;28;20032;-83
2021/10/06 04:53:26;;;;;;;17.58;12.50;;;12.40;99.90;;;;;;5109457;28;20068;-82
2021/10/06 04:55:52;;;;;;;14.18;12.60;;;12.40;99.90;;;;;;5072488;28;20107;-83
2021/10/06 04:58:17;;;;;;;18.65;12.90;;;12.40;99.90;;;;;;5072246;28;20036;-83
2021/10/06 05:00:43;;;;;;;17.80;12.85;;;12.30;99.90;;;;;;5073809;28;20024;-84
2021/10/06 05:03:10;;;;;;;17.80;13.27;;;12.30;99.90;;;;;;5079044;28;20028;-83
2021/10/06 05:05:37;;;;;;;20.67;13.27;;;12.30;99.90;;;;;;5093535;28;20043;-83
2021/10/06 05:08:04;;;;;;;16.77;13.55;;;12.30;99.90;;;;;;5092290;28;20030;-83
2021/10/06 05:10:29;;;;;;;17.25;12.60;;;12.30;99.90;;;;;;5089713;28;20040;-83
2021/10/06 05:12:55;;;;;;;17.65;13.05;;;12.30;99.90;;;;;;5080274;28;20131;-83
2021/10/06 05:15:21;;;;;;;17.23;13.27;;;12.30;99.90;;;;;;5076931;28;20493;-83
2021/10/06 05:17:46;;;;;;;20.48;14.52;;;12.30;99.90;;;;;;5079765;28;20017;-82
2021/10/06 05:20:12;;;;;;;18.67;13.73;;;12.30;99.90;;;;;;5076060;28;20039;-82
2021/10/06 05:22:38;;;;;;;18.23;14.18;;;12.30;99.90;;;;;;5079090;28;20363;-82
2021/10/06 05:25:04;;;;;;;17.60;12.38;;;12.30;99.90;;;;;;5078854;28;20060;-82
2021/10/06 05:27:30;;;;;;;19.02;12.77;;;12.30;99.90;;;;;;5076803;28;20469;-81
2021/10/06 05:29:58;;;;;;;20.08;14.05;;;12.30;99.90;;;;;;5078001;28;20040;-82
2021/10/06 05:32:24;;;;;;;17.95;13.80;;;12.30;99.90;;;;;;5076876;28;20016;-83
2021/10/06 05:34:49;;;;;;;18.85;14.60;;;12.30;99.90;;;;;;5077973;28;20114;-83
2021/10/06 05:37:15;;;;;;;17.05;13.25;;;12.30;99.90;;;;;;5077910;28;20572;-84
2021/10/06 05:39:41;;;;;;;18.67;13.52;;;12.30;99.90;;;;;;5076388;28;20021;-83
2021/10/06 05:42:07;;;;;;;18.25;13.48;;;12.40;99.90;;;;;;5075499;28;20051;-85
2021/10/06 05:44:33;;;;;;;20.00;15.43;;;12.40;99.90;;;;;;5078543;28;20040;-84
2021/10/06 05:46:58;;;;;;;22.85;14.73;;;12.40;99.90;;;;;;5077523;28;20512;-83
2021/10/06 05:49:24;;;;;;;20.23;14.32;;;12.30;99.90;;;;;;5076527;28;20102;-83
2021/10/06 05:51:50;;;;;;;33.42;19.42;;;12.30;99.90;;;;;;5078759;28;20032;-83
2021/10/06 05:54:15;;;;;;;21.88;15.40;;;12.30;99.90;;;;;;5081427;28;20095;-83
2021/10/06 05:56:41;;;;;;;17.80;12.95;;;12.30;99.90;;;;;;5084365;28;20025;-83
2021/10/06 05:59:07;;;;;;;15.32;12.00;;;12.30;99.90;;;;;;5078236;28;20048;-84
2021/10/06 06:01:33;;;;;;;19.38;14.38;;;12.30;99.90;;;;;;5077048;28;20020;-83
2021/10/06 06:03:58;;;;;;;18.90;13.23;;;12.40;99.90;;;;;;5078842;28;20032;-83
2021/10/06 06:06:24;;;;;;;15.25;11.55;;;12.50;99.90;;;;;;5085251;28;20109;-83
2021/10/06 06:08:49;;;;;;;13.65;10.77;;;12.50;99.90;;;;;;5083751;28;20016;-83
2021/10/06 06:11:15;;;;;;;18.58;13.00;;;12.50;99.90;;;;;;5076063;28;20067;-82
2021/10/06 06:13:41;;;;;;;20.17;12.73;;;12.40;99.90;;;;;;5078367;28;20475;-83
2021/10/06 06:16:07;;;;;;;19.15;13.50;;;12.40;99.90;;;;;;5081392;28;20043;-83
2021/10/06 06:18:33;;;;;;;16.33;12.23;;;12.40;99.90;;;;;;5080927;28;20496;-82
2021/10/06 06:20:58;;;;;;;19.77;12.95;;;12.30;99.90;;;;;;5077587;28;20013;-83
2021/10/06 06:23:26;;;;;;;19.58;13.95;;;12.30;99.90;;;;;;5082434;28;20039;-83
2021/10/06 06:25:51;;;;;;;18.60;15.40;;;12.40;99.90;;;;;;5077863;28;20028;-84
2021/10/06 06:28:17;;;;;;;26.63;22.23;;;12.40;99.90;;;;;;5074821;28;20489;-84
2021/10/06 06:30:43;;;;;;;28.38;23.92;;;12.40;99.90;;;;;;5077458;28;20178;-84
2021/10/06 06:33:09;;;;;;;25.45;22.20;;;12.40;99.90;;;;;;5075845;28;20020;-84
2021/10/06 06:35:34;;;;;;;24.13;15.82;;;12.40;99.90;;;;;;5079599;28;20051;-84
2021/10/06 06:38:00;;;;;;;19.30;13.45;;;12.40;99.90;;;;;;5085965;28;20465;-84
2021/10/06 06:40:26;;;;;;;19.30;14.30;;;12.40;99.90;;;;;;5079720;28;20028;-84
2021/10/06 06:42:52;;;;;;;19.88;13.40;;;12.40;99.90;;;;;;5078090;28;20020;-84
2021/10/06 06:45:18;;;;;;;18.77;15.32;;;12.40;99.90;;;;;;5076305;28;20020;-84
2021/10/06 06:47:43;;;;;;;19.85;14.63;;;12.40;99.90;;;;;;5075856;28;20024;-82
2021/10/06 06:50:12;;;;;;;19.02;12.93;;;12.50;99.90;;;;;;5082131;28;20120;-82
2021/10/06 06:52:38;;;;;;;19.88;15.13;;;12.50;99.90;;;;;;5080697;28;20024;-82
2021/10/06 06:55:04;;;;;;;18.52;13.10;;;12.50;99.90;;;;;;5081475;28;20115;-81
2021/10/06 06:57:30;;;;;;;16.52;12.30;;;12.60;99.90;;;;;;5082878;28;20028;-83
2021/10/06 06:59:56;;;;;;;19.85;12.52;;;12.60;99.90;;;;;;5082510;28;20043;-82
2021/10/06 07:02:21;;;;;;;15.18;12.02;;;12.60;99.90;;;;;;5083466;28;20047;-83
2021/10/06 07:04:47;;;;;;;20.35;12.98;;;12.60;99.90;;;;;;5080832;28;20024;-83
2021/10/06 07:07:14;;;;;;;17.52;12.27;;;12.60;99.90;;;;;;5084648;28;20027;-82
2021/10/06 07:09:48;;;;;;;17.77;13.32;;;12.60;99.90;;;;;;5083895;28;20381;-83
2021/10/06 07:12:19;;;;;;;17.42;13.07;;;12.60;99.90;;;;;;5088430;28;20024;-83
2021/10/06 07:14:45;;;;;;;26.20;19.08;;;12.70;99.90;;;;;;5082297;28;20103;-82
2021/10/06 07:17:11;;;;;;;22.10;17.35;;;12.70;99.90;;;;;;5080657;28;20510;-82
2021/10/06 07:19:38;;;;;;;21.90;15.98;;;12.70;99.90;;;;;;5078486;28;20024;-83
2021/10/06 07:22:04;;;;;;;25.30;18.67;;;12.80;99.90;;;;;;5081810;28;20023;-83
2021/10/06 07:24:30;;;;;;;22.50;16.80;;;12.90;99.90;;;;;;5084825;28;20024;-83
2021/10/06 07:26:56;;;;;;;21.02;15.63;;;12.90;99.90;;;;;;5082896;28;20016;-83
2021/10/06 07:29:21;;;;;;;13.32;11.77;;;12.90;99.90;;;;;;5086570;28;20531;-82
2021/10/06 07:31:47;;;;;;;17.05;13.25;;;12.90;99.90;;;;;;5085766;28;20040;-83
2021/10/06 07:34:13;;;;;;;17.30;12.05;;;12.90;99.90;;;;;;5090991;28;20099;-82
2021/10/06 07:36:39;;;;;;;18.33;13.43;;;12.90;99.90;;;;;;5082492;28;20027;-83
2021/10/06 07:39:06;;;;;;;22.02;13.57;;;13.00;99.90;;;;;;5084671;28;20039;-82
2021/10/06 07:41:33;;;;;;;17.80;13.73;;;12.90;99.90;;;;;;5079652;28;20027;-83
2021/10/06 07:43:58;;;;;;;18.17;13.80;;;13.00;99.90;;;;;;5082807;28;20020;-83
2021/10/06 07:46:24;;;;;;;18.08;13.02;;;13.10;99.90;;;;;;5085717;28;20035;-83
2021/10/06 07:48:50;;;;;;;19.40;13.82;;;13.00;99.90;;;;;;5086253;28;20028;-82
2021/10/06 07:51:17;;;;;;;16.88;14.15;;;13.10;99.90;;;;;;5085435;28;20031;-83
2021/10/06 07:53:46;;;;;;;17.73;14.10;;;13.10;99.90;;;;;;5090936;28;20024;-83
2021/10/06 07:56:12;;;;;;;20.10;13.77;;;13.20;99.90;;;;;;5074731;28;20020;-84
2021/10/06 07:58:38;;;;;;;20.60;14.43;;;13.30;99.90;;;;;;5085707;28;20370;-83
2021/10/06 08:01:03;;;;;;;19.05;13.45;;;13.30;99.90;;;;;;5093246;28;20027;-83
2021/10/06 08:03:29;;;;;;;15.05;12.30;;;13.40;99.90;;;;;;5086325;28;20042;-83
2021/10/06 08:05:55;;;;;;;18.13;13.30;;;13.40;99.90;;;;;;5073907;28;20428;-83
2021/10/06 08:08:21;;;;;;;17.40;11.55;;;13.40;99.90;;;;;;5088028;28;20495;-83
2021/10/06 08:10:46;;;;;;;17.08;12.45;;;13.50;99.90;;;;;;5095162;28;20036;-83
2021/10/06 08:13:12;;;;;;;18.55;13.32;;;13.40;99.90;;;;;;5110876;28;20024;-83
2021/10/06 08:15:38;;;;;;;17.23;11.40;;;13.40;99.90;;;;;;5081933;28;20029;-83
2021/10/06 08:18:04;;;;;;;15.55;12.57;;;13.30;99.90;;;;;;5074853;28;20119;-83
2021/10/06 08:20:33;;;;;;;19.20;13.23;;;13.20;99.90;;;;;;5073502;28;20420;-83
2021/10/06 08:23:03;;;;;;;18.05;12.95;;;13.10;99.90;;;;;;5073502;28;20020;-83
2021/10/06 08:25:30;;;;;;;18.42;13.07;;;13.10;99.90;;;;;;5073976;28;20021;-83
2021/10/06 08:27:56;;;;;;;16.85;12.27;;;13.10;99.90;;;;;;5073458;28;20127;-83
2021/10/06 08:30:23;;;;;;;19.73;14.05;;;13.10;99.90;;;;;;5073358;28;20036;-83
2021/10/06 08:32:49;;;;;;;17.98;13.65;;;13.00;99.90;;;;;;5076845;28;20111;-82
2021/10/06 08:35:14;;;;;;;19.27;12.63;;;13.10;99.90;;;;;;5078651;28;20055;-83
2021/10/06 08:37:40;;;;;;;16.95;13.02;;;13.10;99.90;;;;;;5079204;28;20501;-83
2021/10/06 08:40:06;;;;;;;16.00;12.38;;;13.10;99.90;;;;;;5081290;28;20020;-83
2021/10/06 08:42:32;;;;;;;19.23;12.38;;;13.00;99.90;;;;;;5082955;28;20432;-82
2021/10/06 08:45:07;;;;;;;18.20;14.13;;;13.00;99.90;;;;;;5079982;28;20039;-83
2021/10/06 08:47:38;;;;;;;18.52;13.55;;;13.00;99.90;;;;;;5081780;28;20036;-82
2021/10/06 08:50:19;;;;;;;14.98;11.50;;;13.00;99.90;;;;;;5078856;28;20036;-82
2021/10/06 08:52:49;;;;;;;17.05;13.00;;;13.00;99.90;;;;;;5079693;28;20025;-82
2021/10/06 08:55:16;;;;;;;15.88;12.88;;;13.00;99.90;;;;;;5076987;28;20031;-83
2021/10/06 08:57:42;;;;;;;17.83;13.35;;;13.00;99.90;;;;;;5076633;28;20017;-82
2021/10/06 09:00:09;;;;;;;17.17;12.98;;;13.00;99.90;;;;;;5076715;28;20016;-82
2021/10/06 09:02:39;;;;;;;21.50;14.05;;;13.00;99.90;;;;;;5076216;28;20676;-82
2021/10/06 09:05:07;;;;;;;18.30;14.50;;;13.00;99.90;;;;;;5078011;28;20052;-82
2021/10/06 09:07:32;;;;;;;25.30;16.20;;;13.00;99.90;;;;;;5082418;28;20027;-82
2021/10/06 09:10:14;;;;;;;20.95;16.17;;;13.00;99.90;;;;;;5082025;28;20029;-83
2021/10/06 09:12:52;;;;;;;18.33;14.80;;;13.00;99.90;;;;;;5077439;28;20475;-83
2021/10/06 09:15:18;;;;;;;19.05;14.27;;;13.00;99.90;;;;;;5078776;28;20023;-82
2021/10/06 09:17:52;;;;;;;18.42;13.60;;;13.00;99.90;;;;;;5085314;28;20024;-82
2021/10/06 09:20:17;;;;;;;20.35;14.85;;;13.10;99.90;;;;;;5086487;28;20074;-82
2021/10/06 09:23:00;;;;;;;19.25;13.00;;;13.10;99.90;;;;;;5088695;28;20048;-82
2021/10/06 09:25:30;;;;;;;;;;;13.10;99.90;;;;;;5083247;28;20016;-82
2021/10/06 09:27:56;;;;;;;20.60;13.75;;;13.10;99.90;;;;;;5078464;28;19913;-83
2021/10/06 09:30:21;;;;;;;21.27;15.52;;;13.10;99.90;;;;;;5086754;28;20523;-83
2021/10/06 09:32:47;;;;;;;19.63;13.85;;;13.10;99.90;;;;;;5088815;28;20047;-83
2021/10/06 09:35:13;;;;;;;20.52;14.25;;;13.10;99.90;;;;;;5089821;28;20474;-83
2021/10/06 09:37:42;;;;;;;19.90;14.38;;;13.10;99.90;;;;;;5085941;28;20461;-83
2021/10/06 09:40:09;;;;;;;19.63;13.55;;;13.10;99.90;;;;;;5082245;28;20035;-83
2021/10/06 09:42:42;;;;;;;19.67;14.38;;;13.10;99.90;;;;;;5080139;28;20020;-83
2021/10/06 09:45:08;;;;;;;19.13;14.75;;;13.20;99.90;;;;;;5082695;28;20016;-83
2021/10/06 09:47:35;;;;;;;23.98;15.85;;;13.20;99.90;;;;;;5083737;28;20058;-83
2021/10/06 09:50:02;;;;;;;21.10;15.85;;;13.30;99.90;;;;;;5086800;28;20039;-83
2021/10/06 09:52:31;;;;;;;22.05;15.98;;;13.20;99.90;;;;;;5082059;28;20116;-83
2021/10/06 09:55:02;;;;;;;21.52;15.60;;;13.20;99.90;;;;;;5083269;28;20048;-83
2021/10/06 09:57:29;;;;;;;18.92;14.43;;;13.20;99.90;;;;;;5084309;28;20038;-83
2021/10/06 10:00:21;;;;;;;19.65;14.25;;;13.20;99.90;;;;;;5074122;28;20051;-83
2021/10/06 10:02:47;;;;;;;19.95;14.60;;;13.30;99.90;;;;;;5087700;28;20058;-82
2021/10/06 10:05:14;;;;;;;22.58;15.45;;;13.30;99.90;;;;;;5079686;28;20048;-83
2021/10/06 10:07:40;;;;;;;22.67;15.70;;;13.30;99.90;;;;;;5075501;28;20027;-83
2021/10/06 10:10:10;;;;;;;24.38;15.05;;;13.30;99.90;;;;;;5085006;28;20055;-82
2021/10/06 10:12:36;;;;;;;21.45;15.93;;;13.30;99.90;;;;;;5108855;28;20031;-83
2021/10/06 10:15:03;;;;;;;21.90;14.88;;;13.30;99.90;;;;;;5108702;28;20024;-83
2021/10/06 10:17:29;;;;;;;26.90;17.65;;;13.30;99.90;;;;;;5093110;28;20084;-83
2021/10/06 10:20:01;;;;;;;28.73;19.30;;;13.30;99.90;;;;;;5075620;28;20111;-83
2021/10/06 10:22:38;;;;;;;22.85;16.25;;;13.40;99.90;;;;;;5072895;28;20488;-83
2021/10/06 10:25:22;;;;;;;21.95;14.85;;;13.30;99.90;;;;;;5072383;28;20031;-82
2021/10/06 10:28:03;;;;;;;19.08;14.00;;;13.40;99.90;;;;;;5071679;28;20059;-82
2021/10/06 10:30:31;;;;;;;22.52;17.08;;;13.40;99.90;;;;;;5072637;28;20043;-83
2021/10/06 10:32:57;;;;;;;22.92;16.33;;;13.40;99.90;;;;;;5071525;28;20035;-83
2021/10/06 10:35:40;;;;;;;21.77;14.68;;;13.50;99.90;;;;;;5074999;28;20028;-83
2021/10/06 10:38:11;;;;;;;19.52;14.32;;;13.50;99.90;;;;;;5082985;28;20522;-83
2021/10/06 10:40:49;;;;;;;21.42;15.25;;;13.40;99.90;;;;;;5079843;28;20430;-83
2021/10/06 10:43:19;;;;;;;19.77;13.57;;;13.50;99.90;;;;;;5080553;28;20088;-83
2021/10/06 10:46:07;;;;;;;17.88;12.93;;;13.50;99.90;;;;;;5078968;28;20029;-83
2021/10/06 10:48:53;;;;;;;16.42;12.35;;;13.60;99.90;;;;;;5081959;28;20031;-83
2021/10/06 10:51:19;;;;;;;19.92;12.95;;;13.60;99.90;;;;;;5089944;28;20127;-83
2021/10/06 10:53:50;;;;;;;18.00;12.27;;;13.70;99.90;;;;;;5081737;28;20115;-83
2021/10/06 10:56:48;;;;;;;16.27;12.20;;;13.80;99.90;;;;;;5083097;28;20020;-83
2021/10/06 10:59:25;;;;;;;17.30;12.07;;;13.80;99.90;;;;;;5073335;28;20043;-83
2021/10/06 11:01:57;;;;;;;15.65;11.80;;;13.90;99.90;;;;;;5079525;28;20019;-82
2021/10/06 11:04:28;;;;;;;16.85;12.20;;;13.90;99.90;;;;;;5078843;28;20016;-83
2021/10/06 11:07:12;;;;;;;14.10;10.93;;;14.00;99.90;;;;;;5082171;28;20024;-83
2021/10/06 11:09:43;;;;;;;16.13;13.05;;;14.00;99.90;;;;;;5081367;28;20118;-83
2021/10/06 11:12:12;;;;;;;24.23;17.00;;;14.10;99.90;;;;;;5081659;28;20036;-83
2021/10/06 11:14:41;;;;;;;19.50;13.43;;;14.10;99.90;;;;;;5076618;28;20126;-83
2021/10/06 11:17:15;;;;;;;18.80;14.32;;;14.20;99.90;;;;;;5075766;28;20126;-83
2021/10/06 11:19:42;;;;;;;19.85;14.30;;;14.20;99.90;;;;;;5080663;28;20050;-84
2021/10/06 11:22:23;;;;;;;17.30;12.52;;;14.30;99.90;;;;;;5081253;28;20478;-83
2021/10/06 11:25:00;;;;;;;20.73;12.88;;;14.30;99.90;;;;;;5082404;28;20428;-83
2021/10/06 11:27:29;;;;;;;15.40;12.10;;;14.40;99.90;;;;;;5081239;28;20020;-83
2021/10/06 11:29:57;;;;;;;15.30;12.68;;;14.40;99.90;;;;;;5082206;28;20035;-83
2021/10/06 11:32:23;;;;;;;16.73;12.32;;;14.50;99.90;;;;;;5083353;28;20039;-83
2021/10/06 11:34:50;;;;;;;18.02;14.25;;;14.50;99.90;;;;;;5077100;28;20017;-83
2021/10/06 11:37:17;;;;;;;18.92;13.85;;;14.60;99.90;;;;;;5080104;28;20028;-83
2021/10/06 11:39:43;;;;;;;17.33;12.48;;;14.60;99.90;;;;;;5076859;28;20465;-83
2021/10/06 11:42:09;;;;;;;18.50;12.75;;;14.60;99.90;;;;;;5080296;28;20424;-83
2021/10/06 11:44:36;;;;;;;16.65;12.98;;;14.70;99.90;;;;;;5080660;28;20021;-83
2021/10/06 11:47:11;;;;;;;18.45;12.80;;;14.70;99.90;;;;;;5085214;28;20425;-83
2021/10/06 11:49:40;;;;;;;17.58;12.65;;;14.70;99.90;;;;;;5074363;28;20474;-83
2021/10/06 11:52:08;;;;;;;20.42;15.10;;;14.80;99.90;;;;;;5079846;28;20098;-83
2021/10/06 11:54:34;;;;;;;15.23;12.75;;;14.80;99.90;;;;;;5081347;28;20027;-84
2021/10/06 11:57:02;;;;;;;18.80;13.25;;;14.80;99.90;;;;;;5080210;28;20026;-84
2021/10/06 11:59:30;;;;;;;17.25;13.40;;;14.80;99.90;;;;;;5078823;28;20048;-84
2021/10/06 12:02:05;;;;;;;22.63;17.00;;;14.80;99.90;;;;;;5085401;28;20037;-84
2021/10/06 12:04:33;;;;;;;22.02;14.52;;;14.80;99.90;;;;;;5079724;28;20027;-84
2021/10/06 12:07:03;;;;;;;24.35;14.85;;;14.80;99.90;;;;;;5081622;28;20032;-84
2021/10/06 12:09:42;;;;;;;17.75;13.80;;;14.70;99.90;;;;;;5084052;28;20036;-84
2021/10/06 12:12:12;;;;;;;16.92;12.95;;;14.70;99.90;;;;;;5080447;28;20030;-85
2021/10/06 12:14:45;;;;;;;18.95;13.60;;;14.60;99.90;;;;;;5080903;28;20031;-85
2021/10/06 12:17:15;;;;;;;16.25;13.52;;;14.60;99.90;;;;;;5080607;28;20025;-84
2021/10/06 12:19:52;;;;;;;18.30;13.35;;;14.60;99.90;;;;;;5088925;28;20028;-82
2021/10/06 12:22:18;;;;;;;17.40;13.85;;;14.50;99.90;;;;;;5087668;28;20016;-82
2021/10/06 12:24:43;;;;;;;20.38;14.40;;;14.40;99.90;;;;;;5081835;28;20541;-82
2021/10/06 12:27:28;;;;;;;20.23;14.18;;;14.40;99.90;;;;;;5083104;28;20031;-82
2021/10/06 12:30:16;;;;;;;16.23;12.93;;;14.30;99.90;;;;;;5077012;28;20227;-82